sensor_id;sensor_type;location;lat;lon;timestamp;P1;durP1;ratioP1;P2;durP2;ratioP2
46284;SDS011;32018;59.182;18.148;2022-11-20T00:00:25;0.90;;;0.90;;
46284;SDS011;32018;59.182;18.148;2022-11-20T00:02:50;1.30;;;1.20;;
46284;SDS011;32018;59.182;18.148;2022-11-20T00:05:16;1.10;;;1.10;;
46284;SDS011;32018;59.182;18.148;2022-11-20T00:07:41;1.05;;;1.05;;
46284;SDS011;32018;59.182;18.148;2022-11-20T00:10:07;1.00;;;1.00;;
46284;SDS011;32018;59.182;18.148;2022-11-20T00:12:32;0.90;;;0.90;;
46284;SDS011;32018;59.182;18.148;2022-11-20T00:14:58;1.20;;;1.20;;
46284;SDS011;32018;59.182;18.148;2022-11-20T00:17:23;1.10;;;1.10;;
46284;SDS011;32018;59.182;18.148;2022-11-20T00:19:48;1.00;;;1.00;;
46284;SDS011;32018;59.182;18.148;2022-11-20T00:22:14;1.10;;;1.10;;
46284;SDS011;32018;59.182;18.148;2022-11-20T00:24:39;1.00;;;0.90;;
46284;SDS011;32018;59.182;18.148;2022-11-20T00:27:04;1.02;;;1.00;;
46284;SDS011;32018;59.182;18.148;2022-11-20T00:29:30;0.98;;;0.98;;
46284;SDS011;32018;59.182;18.148;2022-11-20T00:31:55;1.00;;;1.00;;
46284;SDS011;32018;59.182;18.148;2022-11-20T00:34:20;0.90;;;0.90;;
46284;SDS011;32018;59.182;18.148;2022-11-20T00:36:46;0.93;;;0.93;;
46284;SDS011;32018;59.182;18.148;2022-11-20T00:39:11;1.00;;;1.00;;
46284;SDS011;32018;59.182;18.148;2022-11-20T00:41:36;1.17;;;1.08;;
46284;SDS011;32018;59.182;18.148;2022-11-20T00:44:02;0.93;;;0.93;;
46284;SDS011;32018;59.182;18.148;2022-11-20T00:46:27;1.00;;;1.00;;
46284;SDS011;32018;59.182;18.148;2022-11-20T00:48:53;1.00;;;1.00;;
46284;SDS011;32018;59.182;18.148;2022-11-20T00:51:19;0.95;;;0.95;;
46284;SDS011;32018;59.182;18.148;2022-11-20T00:53:45;0.90;;;0.90;;
46284;SDS011;32018;59.182;18.148;2022-11-20T00:56:12;1.00;;;1.00;;
46284;SDS011;32018;59.182;18.148;2022-11-20T00:58:38;0.80;;;0.80;;
46284;SDS011;32018;59.182;18.148;2022-11-20T01:01:07;0.90;;;0.90;;
46284;SDS011;32018;59.182;18.148;2022-11-20T01:03:33;0.90;;;0.90;;
46284;SDS011;32018;59.182;18.148;2022-11-20T01:06:00;0.90;;;0.90;;
46284;SDS011;32018;59.182;18.148;2022-11-20T01:08:28;0.90;;;0.90;;
46284;SDS011;32018;59.182;18.148;2022-11-20T01:10:58;0.90;;;0.90;;
46284;SDS011;32018;59.182;18.148;2022-11-20T01:13:23;0.85;;;0.85;;
46284;SDS011;32018;59.182;18.148;2022-11-20T01:16:13;0.90;;;0.90;;
46284;SDS011;32018;59.182;18.148;2022-11-20T01:18:40;0.80;;;0.80;;
46284;SDS011;32018;59.182;18.148;2022-11-20T01:21:06;0.80;;;0.80;;
46284;SDS011;32018;59.182;18.148;2022-11-20T01:23:35;0.70;;;0.70;;
46284;SDS011;32018;59.182;18.148;2022-11-20T01:26:02;0.88;;;0.88;;
46284;SDS011;32018;59.182;18.148;2022-11-20T01:28:28;0.90;;;0.90;;
46284;SDS011;32018;59.182;18.148;2022-11-20T01:30:53;0.90;;;0.85;;
46284;SDS011;32018;59.182;18.148;2022-11-20T01:33:19;0.85;;;0.85;;
46284;SDS011;32018;59.182;18.148;2022-11-20T01:35:44;0.80;;;0.80;;
46284;SDS011;32018;59.182;18.148;2022-11-20T01:38:09;0.85;;;0.85;;
46284;SDS011;32018;59.182;18.148;2022-11-20T01:40:35;0.68;;;0.68;;
46284;SDS011;32018;59.182;18.148;2022-11-20T01:43:14;0.70;;;0.70;;
46284;SDS011;32018;59.182;18.148;2022-11-20T01:45:56;0.70;;;0.70;;
46284;SDS011;32018;59.182;18.148;2022-11-20T01:48:22;0.70;;;0.70;;
46284;SDS011;32018;59.182;18.148;2022-11-20T01:50:48;0.60;;;0.60;;
46284;SDS011;32018;59.182;18.148;2022-11-20T01:53:15;0.70;;;0.70;;
46284;SDS011;32018;59.182;18.148;2022-11-20T01:55:44;0.70;;;0.70;;
46284;SDS011;32018;59.182;18.148;2022-11-20T01:58:10;0.60;;;0.60;;
46284;SDS011;32018;59.182;18.148;2022-11-20T02:00:36;0.60;;;0.50;;
46284;SDS011;32018;59.182;18.148;2022-11-20T02:03:05;0.55;;;0.55;;
46284;SDS011;32018;59.182;18.148;2022-11-20T02:05:36;0.35;;;0.35;;
46284;SDS011;32018;59.182;18.148;2022-11-20T02:10:28;0.60;;;0.60;;
46284;SDS011;32018;59.182;18.148;2022-11-20T02:12:54;0.40;;;0.40;;
46284;SDS011;32018;59.182;18.148;2022-11-20T02:15:38;0.57;;;0.57;;
46284;SDS011;32018;59.182;18.148;2022-11-20T02:18:04;0.50;;;0.50;;
46284;SDS011;32018;59.182;18.148;2022-11-20T02:20:30;0.60;;;0.60;;
46284;SDS011;32018;59.182;18.148;2022-11-20T02:22:57;0.45;;;0.45;;
46284;SDS011;32018;59.182;18.148;2022-11-20T02:25:24;0.60;;;0.60;;
46284;SDS011;32018;59.182;18.148;2022-11-20T02:27:51;0.68;;;0.68;;
46284;SDS011;32018;59.182;18.148;2022-11-20T02:30:16;0.30;;;0.30;;
46284;SDS011;32018;59.182;18.148;2022-11-20T02:32:42;0.40;;;0.40;;
46284;SDS011;32018;59.182;18.148;2022-11-20T02:35:49;0.50;;;0.50;;
46284;SDS011;32018;59.182;18.148;2022-11-20T02:37:57;0.68;;;0.45;;
46284;SDS011;32018;59.182;18.148;2022-11-20T02:40:22;0.38;;;0.38;;
46284;SDS011;32018;59.182;18.148;2022-11-20T02:42:51;0.70;;;0.70;;
46284;SDS011;32018;59.182;18.148;2022-11-20T02:45:17;0.60;;;0.60;;
46284;SDS011;32018;59.182;18.148;2022-11-20T02:47:42;0.50;;;0.50;;
46284;SDS011;32018;59.182;18.148;2022-11-20T02:50:07;0.50;;;0.50;;
46284;SDS011;32018;59.182;18.148;2022-11-20T02:52:33;0.50;;;0.50;;
46284;SDS011;32018;59.182;18.148;2022-11-20T02:54:58;0.60;;;0.60;;
46284;SDS011;32018;59.182;18.148;2022-11-20T02:57:23;0.40;;;0.40;;
46284;SDS011;32018;59.182;18.148;2022-11-20T02:59:49;0.40;;;0.40;;
46284;SDS011;32018;59.182;18.148;2022-11-20T03:02:14;0.50;;;0.50;;
46284;SDS011;32018;59.182;18.148;2022-11-20T03:04:40;0.55;;;0.55;;
46284;SDS011;32018;59.182;18.148;2022-11-20T03:07:05;0.40;;;0.40;;
46284;SDS011;32018;59.182;18.148;2022-11-20T03:09:30;0.50;;;0.50;;
46284;SDS011;32018;59.182;18.148;2022-11-20T03:11:56;0.50;;;0.50;;
46284;SDS011;32018;59.182;18.148;2022-11-20T03:14:21;0.43;;;0.43;;
46284;SDS011;32018;59.182;18.148;2022-11-20T03:16:46;0.40;;;0.40;;
46284;SDS011;32018;59.182;18.148;2022-11-20T03:19:12;0.50;;;0.50;;
46284;SDS011;32018;59.182;18.148;2022-11-20T03:21:37;0.40;;;0.40;;
46284;SDS011;32018;59.182;18.148;2022-11-20T03:24:03;0.50;;;0.50;;
46284;SDS011;32018;59.182;18.148;2022-11-20T03:26:28;0.50;;;0.50;;
46284;SDS011;32018;59.182;18.148;2022-11-20T03:28:55;0.57;;;0.57;;
46284;SDS011;32018;59.182;18.148;2022-11-20T03:31:24;0.47;;;0.47;;
46284;SDS011;32018;59.182;18.148;2022-11-20T03:33:50;0.40;;;0.40;;
46284;SDS011;32018;59.182;18.148;2022-11-20T03:36:16;0.60;;;0.60;;
46284;SDS011;32018;59.182;18.148;2022-11-20T03:38:42;0.50;;;0.50;;
46284;SDS011;32018;59.182;18.148;2022-11-20T03:41:09;0.50;;;0.50;;
46284;SDS011;32018;59.182;18.148;2022-11-20T03:43:35;0.40;;;0.40;;
46284;SDS011;32018;59.182;18.148;2022-11-20T03:46:00;0.40;;;0.40;;
46284;SDS011;32018;59.182;18.148;2022-11-20T03:48:26;0.40;;;0.40;;
46284;SDS011;32018;59.182;18.148;2022-11-20T03:50:52;0.47;;;0.47;;
46284;SDS011;32018;59.182;18.148;2022-11-20T03:53:17;0.50;;;0.50;;
46284;SDS011;32018;59.182;18.148;2022-11-20T03:55:43;0.52;;;0.52;;
46284;SDS011;32018;59.182;18.148;2022-11-20T03:58:09;0.47;;;0.47;;
46284;SDS011;32018;59.182;18.148;2022-11-20T04:00:34;0.40;;;0.40;;
46284;SDS011;32018;59.182;18.148;2022-11-20T04:03:00;0.40;;;0.40;;
46284;SDS011;32018;59.182;18.148;2022-11-20T04:05:26;0.38;;;0.38;;
46284;SDS011;32018;59.182;18.148;2022-11-20T04:07:51;0.40;;;0.40;;
46284;SDS011;32018;59.182;18.148;2022-11-20T04:10:16;0.32;;;0.32;;
46284;SDS011;32018;59.182;18.148;2022-11-20T04:12:42;0.40;;;0.40;;
46284;SDS011;32018;59.182;18.148;2022-11-20T04:15:07;0.40;;;0.40;;
46284;SDS011;32018;59.182;18.148;2022-11-20T04:17:33;0.40;;;0.40;;
46284;SDS011;32018;59.182;18.148;2022-11-20T04:19:58;0.50;;;0.50;;
46284;SDS011;32018;59.182;18.148;2022-11-20T04:22:23;0.30;;;0.30;;
46284;SDS011;32018;59.182;18.148;2022-11-20T04:24:49;0.30;;;0.30;;
46284;SDS011;32018;59.182;18.148;2022-11-20T04:27:14;0.40;;;0.40;;
46284;SDS011;32018;59.182;18.148;2022-11-20T04:29:39;0.30;;;0.30;;
46284;SDS011;32018;59.182;18.148;2022-11-20T04:32:05;0.40;;;0.40;;
46284;SDS011;32018;59.182;18.148;2022-11-20T04:34:30;0.40;;;0.40;;
46284;SDS011;32018;59.182;18.148;2022-11-20T04:36:55;0.40;;;0.40;;
46284;SDS011;32018;59.182;18.148;2022-11-20T04:39:21;0.40;;;0.40;;
46284;SDS011;32018;59.182;18.148;2022-11-20T04:41:46;0.40;;;0.40;;
46284;SDS011;32018;59.182;18.148;2022-11-20T04:44:11;0.40;;;0.40;;
46284;SDS011;32018;59.182;18.148;2022-11-20T04:46:40;0.47;;;0.47;;
46284;SDS011;32018;59.182;18.148;2022-11-20T04:49:07;0.38;;;0.38;;
46284;SDS011;32018;59.182;18.148;2022-11-20T04:51:32;0.38;;;0.38;;
46284;SDS011;32018;59.182;18.148;2022-11-20T04:53:57;0.40;;;0.40;;
46284;SDS011;32018;59.182;18.148;2022-11-20T04:56:23;0.40;;;0.40;;
46284;SDS011;32018;59.182;18.148;2022-11-20T04:58:48;0.43;;;0.43;;
46284;SDS011;32018;59.182;18.148;2022-11-20T05:01:18;0.40;;;0.40;;
46284;SDS011;32018;59.182;18.148;2022-11-20T05:03:44;0.40;;;0.40;;
46284;SDS011;32018;59.182;18.148;2022-11-20T05:06:10;0.30;;;0.30;;
46284;SDS011;32018;59.182;18.148;2022-11-20T05:08:36;0.40;;;0.40;;
46284;SDS011;32018;59.182;18.148;2022-11-20T05:11:11;0.40;;;0.40;;
46284;SDS011;32018;59.182;18.148;2022-11-20T05:13:37;0.40;;;0.40;;
46284;SDS011;32018;59.182;18.148;2022-11-20T05:16:03;0.30;;;0.30;;
46284;SDS011;32018;59.182;18.148;2022-11-20T05:18:28;0.40;;;0.40;;
46284;SDS011;32018;59.182;18.148;2022-11-20T05:20:54;0.40;;;0.40;;
46284;SDS011;32018;59.182;18.148;2022-11-20T05:23:20;0.40;;;0.40;;
46284;SDS011;32018;59.182;18.148;2022-11-20T05:25:45;0.30;;;0.30;;
46284;SDS011;32018;59.182;18.148;2022-11-20T05:28:10;0.30;;;0.30;;
46284;SDS011;32018;59.182;18.148;2022-11-20T05:30:36;0.32;;;0.32;;
46284;SDS011;32018;59.182;18.148;2022-11-20T05:33:01;0.50;;;0.50;;
46284;SDS011;32018;59.182;18.148;2022-11-20T05:35:26;0.30;;;0.30;;
46284;SDS011;32018;59.182;18.148;2022-11-20T05:37:52;0.30;;;0.30;;
46284;SDS011;32018;59.182;18.148;2022-11-20T05:40:17;0.30;;;0.30;;
46284;SDS011;32018;59.182;18.148;2022-11-20T05:42:42;0.38;;;0.38;;
46284;SDS011;32018;59.182;18.148;2022-11-20T05:45:08;0.38;;;0.38;;
46284;SDS011;32018;59.182;18.148;2022-11-20T05:47:34;0.30;;;0.30;;
46284;SDS011;32018;59.182;18.148;2022-11-20T05:50:00;0.30;;;0.20;;
46284;SDS011;32018;59.182;18.148;2022-11-20T05:52:27;0.40;;;0.40;;
46284;SDS011;32018;59.182;18.148;2022-11-20T05:54:53;0.30;;;0.30;;
46284;SDS011;32018;59.182;18.148;2022-11-20T05:57:18;0.20;;;0.20;;
46284;SDS011;32018;59.182;18.148;2022-11-20T05:59:43;0.32;;;0.32;;
46284;SDS011;32018;59.182;18.148;2022-11-20T06:02:09;0.40;;;0.40;;
46284;SDS011;32018;59.182;18.148;2022-11-20T06:04:34;0.70;;;0.32;;
46284;SDS011;32018;59.182;18.148;2022-11-20T06:06:59;0.30;;;0.30;;
46284;SDS011;32018;59.182;18.148;2022-11-20T06:09:25;0.30;;;0.30;;
46284;SDS011;32018;59.182;18.148;2022-11-20T06:11:50;0.40;;;0.40;;
46284;SDS011;32018;59.182;18.148;2022-11-20T06:14:16;0.43;;;0.43;;
46284;SDS011;32018;59.182;18.148;2022-11-20T06:16:41;0.30;;;0.30;;
46284;SDS011;32018;59.182;18.148;2022-11-20T06:19:06;0.40;;;0.40;;
46284;SDS011;32018;59.182;18.148;2022-11-20T06:21:31;0.40;;;0.40;;
46284;SDS011;32018;59.182;18.148;2022-11-20T06:23:57;0.52;;;0.52;;
46284;SDS011;32018;59.182;18.148;2022-11-20T06:26:23;0.30;;;0.30;;
46284;SDS011;32018;59.182;18.148;2022-11-20T06:28:49;0.70;;;0.30;;
46284;SDS011;32018;59.182;18.148;2022-11-20T06:31:15;0.30;;;0.30;;
46284;SDS011;32018;59.182;18.148;2022-11-20T06:33:41;0.30;;;0.30;;
46284;SDS011;32018;59.182;18.148;2022-11-20T06:36:07;0.47;;;0.47;;
46284;SDS011;32018;59.182;18.148;2022-11-20T06:38:32;0.30;;;0.30;;
46284;SDS011;32018;59.182;18.148;2022-11-20T06:40:58;0.30;;;0.30;;
46284;SDS011;32018;59.182;18.148;2022-11-20T06:43:23;0.30;;;0.30;;
46284;SDS011;32018;59.182;18.148;2022-11-20T06:45:54;0.30;;;0.30;;
46284;SDS011;32018;59.182;18.148;2022-11-20T06:48:20;0.30;;;0.30;;
46284;SDS011;32018;59.182;18.148;2022-11-20T06:50:46;0.40;;;0.40;;
46284;SDS011;32018;59.182;18.148;2022-11-20T06:53:11;0.30;;;0.30;;
46284;SDS011;32018;59.182;18.148;2022-11-20T06:55:37;2.35;;;0.40;;
46284;SDS011;32018;59.182;18.148;2022-11-20T06:58:06;7.93;;;1.35;;
46284;SDS011;32018;59.182;18.148;2022-11-20T07:00:31;0.80;;;0.40;;
46284;SDS011;32018;59.182;18.148;2022-11-20T07:02:57;1.00;;;0.82;;
46284;SDS011;32018;59.182;18.148;2022-11-20T07:05:22;0.40;;;0.40;;
46284;SDS011;32018;59.182;18.148;2022-11-20T07:07:48;0.30;;;0.30;;
46284;SDS011;32018;59.182;18.148;2022-11-20T07:10:13;0.20;;;0.20;;
46284;SDS011;32018;59.182;18.148;2022-11-20T07:12:38;0.30;;;0.30;;
46284;SDS011;32018;59.182;18.148;2022-11-20T07:15:04;0.30;;;0.30;;
46284;SDS011;32018;59.182;18.148;2022-11-20T07:17:29;0.40;;;0.40;;
46284;SDS011;32018;59.182;18.148;2022-11-20T07:19:55;0.30;;;0.30;;
46284;SDS011;32018;59.182;18.148;2022-11-20T07:22:20;1.00;;;0.40;;
46284;SDS011;32018;59.182;18.148;2022-11-20T07:24:46;0.30;;;0.30;;
46284;SDS011;32018;59.182;18.148;2022-11-20T07:27:12;0.30;;;0.30;;
46284;SDS011;32018;59.182;18.148;2022-11-20T07:29:37;0.20;;;0.20;;
46284;SDS011;32018;59.182;18.148;2022-11-20T07:32:03;0.28;;;0.28;;
46284;SDS011;32018;59.182;18.148;2022-11-20T07:34:28;0.30;;;0.30;;
46284;SDS011;32018;59.182;18.148;2022-11-20T07:36:54;0.38;;;0.38;;
46284;SDS011;32018;59.182;18.148;2022-11-20T07:39:19;0.73;;;0.73;;
46284;SDS011;32018;59.182;18.148;2022-11-20T07:41:44;0.40;;;0.40;;
46284;SDS011;32018;59.182;18.148;2022-11-20T07:44:10;0.40;;;0.40;;
46284;SDS011;32018;59.182;18.148;2022-11-20T07:46:35;0.77;;;0.32;;
46284;SDS011;32018;59.182;18.148;2022-11-20T07:49:01;0.40;;;0.40;;
46284;SDS011;32018;59.182;18.148;2022-11-20T07:51:26;0.40;;;0.40;;
46284;SDS011;32018;59.182;18.148;2022-11-20T07:53:52;1.15;;;0.50;;
46284;SDS011;32018;59.182;18.148;2022-11-20T07:56:17;0.50;;;0.50;;
46284;SDS011;32018;59.182;18.148;2022-11-20T07:58:43;0.57;;;0.57;;
46284;SDS011;32018;59.182;18.148;2022-11-20T08:01:08;0.50;;;0.50;;
46284;SDS011;32018;59.182;18.148;2022-11-20T08:03:34;0.40;;;0.40;;
46284;SDS011;32018;59.182;18.148;2022-11-20T08:06:02;0.60;;;0.60;;
46284;SDS011;32018;59.182;18.148;2022-11-20T08:08:28;0.50;;;0.50;;
46284;SDS011;32018;59.182;18.148;2022-11-20T08:10:54;0.40;;;0.40;;
46284;SDS011;32018;59.182;18.148;2022-11-20T08:13:39;0.57;;;0.57;;
46284;SDS011;32018;59.182;18.148;2022-11-20T08:16:23;0.63;;;0.63;;
46284;SDS011;32018;59.182;18.148;2022-11-20T08:18:48;0.50;;;0.50;;
46284;SDS011;32018;59.182;18.148;2022-11-20T08:21:14;0.50;;;0.50;;
46284;SDS011;32018;59.182;18.148;2022-11-20T08:23:40;0.52;;;0.50;;
46284;SDS011;32018;59.182;18.148;2022-11-20T08:26:05;0.40;;;0.40;;
46284;SDS011;32018;59.182;18.148;2022-11-20T08:28:30;0.40;;;0.40;;
46284;SDS011;32018;59.182;18.148;2022-11-20T08:30:59;0.50;;;0.50;;
46284;SDS011;32018;59.182;18.148;2022-11-20T08:33:25;0.50;;;0.50;;
46284;SDS011;32018;59.182;18.148;2022-11-20T08:35:50;0.55;;;0.50;;
46284;SDS011;32018;59.182;18.148;2022-11-20T08:38:15;0.50;;;0.50;;
46284;SDS011;32018;59.182;18.148;2022-11-20T08:40:41;0.60;;;0.60;;
46284;SDS011;32018;59.182;18.148;2022-11-20T08:43:26;0.40;;;0.40;;
46284;SDS011;32018;59.182;18.148;2022-11-20T08:45:51;0.40;;;0.40;;
46284;SDS011;32018;59.182;18.148;2022-11-20T08:48:17;0.40;;;0.40;;
46284;SDS011;32018;59.182;18.148;2022-11-20T08:50:42;0.40;;;0.40;;
46284;SDS011;32018;59.182;18.148;2022-11-20T08:53:07;0.40;;;0.40;;
46284;SDS011;32018;59.182;18.148;2022-11-20T08:55:33;0.40;;;0.40;;
46284;SDS011;32018;59.182;18.148;2022-11-20T08:58:04;0.50;;;0.40;;
46284;SDS011;32018;59.182;18.148;2022-11-20T09:00:29;0.57;;;0.38;;
46284;SDS011;32018;59.182;18.148;2022-11-20T09:02:55;0.50;;;0.50;;
46284;SDS011;32018;59.182;18.148;2022-11-20T09:05:20;0.40;;;0.40;;
46284;SDS011;32018;59.182;18.148;2022-11-20T09:07:45;0.50;;;0.50;;
46284;SDS011;32018;59.182;18.148;2022-11-20T09:10:11;0.40;;;0.40;;
46284;SDS011;32018;59.182;18.148;2022-11-20T09:12:36;0.40;;;0.40;;
46284;SDS011;32018;59.182;18.148;2022-11-20T09:15:01;0.30;;;0.30;;
46284;SDS011;32018;59.182;18.148;2022-11-20T09:17:27;1.38;;;0.40;;
46284;SDS011;32018;59.182;18.148;2022-11-20T09:19:52;0.35;;;0.35;;
46284;SDS011;32018;59.182;18.148;2022-11-20T09:22:17;0.88;;;0.60;;
46284;SDS011;32018;59.182;18.148;2022-11-20T09:24:43;0.30;;;0.30;;
46284;SDS011;32018;59.182;18.148;2022-11-20T09:27:08;0.50;;;0.50;;
46284;SDS011;32018;59.182;18.148;2022-11-20T09:29:34;0.50;;;0.50;;
46284;SDS011;32018;59.182;18.148;2022-11-20T09:31:59;0.52;;;0.43;;
46284;SDS011;32018;59.182;18.148;2022-11-20T09:34:25;0.75;;;0.40;;
46284;SDS011;32018;59.182;18.148;2022-11-20T09:36:50;0.40;;;0.40;;
46284;SDS011;32018;59.182;18.148;2022-11-20T09:39:15;0.65;;;0.40;;
46284;SDS011;32018;59.182;18.148;2022-11-20T09:41:52;0.50;;;0.50;;
46284;SDS011;32018;59.182;18.148;2022-11-20T09:49:23;0.50;;;0.50;;
46284;SDS011;32018;59.182;18.148;2022-11-20T09:51:59;0.47;;;0.47;;
46284;SDS011;32018;59.182;18.148;2022-11-20T09:54:29;1.75;;;0.50;;
46284;SDS011;32018;59.182;18.148;2022-11-20T09:56:59;0.40;;;0.40;;
46284;SDS011;32018;59.182;18.148;2022-11-20T09:59:45;0.40;;;0.40;;
46284;SDS011;32018;59.182;18.148;2022-11-20T10:05:06;0.70;;;0.52;;
46284;SDS011;32018;59.182;18.148;2022-11-20T10:07:42;0.50;;;0.50;;
46284;SDS011;32018;59.182;18.148;2022-11-20T10:10:21;0.50;;;0.50;;
46284;SDS011;32018;59.182;18.148;2022-11-20T10:12:54;0.50;;;0.50;;
46284;SDS011;32018;59.182;18.148;2022-11-20T10:15:40;0.40;;;0.40;;
46284;SDS011;32018;59.182;18.148;2022-11-20T10:18:16;0.40;;;0.40;;
46284;SDS011;32018;59.182;18.148;2022-11-20T10:30:48;0.40;;;0.40;;
46284;SDS011;32018;59.182;18.148;2022-11-20T10:33:17;0.57;;;0.57;;
46284;SDS011;32018;59.182;18.148;2022-11-20T10:35:45;0.40;;;0.40;;
46284;SDS011;32018;59.182;18.148;2022-11-20T10:38:21;0.43;;;0.43;;
46284;SDS011;32018;59.182;18.148;2022-11-20T10:40:49;0.30;;;0.30;;
46284;SDS011;32018;59.182;18.148;2022-11-20T10:43:17;0.40;;;0.40;;
46284;SDS011;32018;59.182;18.148;2022-11-20T10:48:22;0.43;;;0.43;;
46284;SDS011;32018;59.182;18.148;2022-11-20T10:53:29;0.60;;;0.50;;
46284;SDS011;32018;59.182;18.148;2022-11-20T10:56:07;0.60;;;0.45;;
46284;SDS011;32018;59.182;18.148;2022-11-20T10:58:37;0.40;;;0.40;;
46284;SDS011;32018;59.182;18.148;2022-11-20T11:01:14;0.85;;;0.50;;
46284;SDS011;32018;59.182;18.148;2022-11-20T11:03:40;0.40;;;0.40;;
46284;SDS011;32018;59.182;18.148;2022-11-20T11:06:08;1.05;;;0.45;;
46284;SDS011;32018;59.182;18.148;2022-11-20T11:08:37;0.40;;;0.40;;
46284;SDS011;32018;59.182;18.148;2022-11-20T11:11:09;0.40;;;0.40;;
46284;SDS011;32018;59.182;18.148;2022-11-20T11:13:38;0.50;;;0.50;;
46284;SDS011;32018;59.182;18.148;2022-11-20T11:16:03;0.38;;;0.38;;
46284;SDS011;32018;59.182;18.148;2022-11-20T11:18:32;0.40;;;0.40;;
46284;SDS011;32018;59.182;18.148;2022-11-20T11:21:02;0.40;;;0.40;;
46284;SDS011;32018;59.182;18.148;2022-11-20T11:25:56;0.40;;;0.40;;
46284;SDS011;32018;59.182;18.148;2022-11-20T11:28:23;0.40;;;0.40;;
46284;SDS011;32018;59.182;18.148;2022-11-20T11:30:51;0.30;;;0.30;;
46284;SDS011;32018;59.182;18.148;2022-11-20T11:33:23;0.55;;;0.43;;
46284;SDS011;32018;59.182;18.148;2022-11-20T11:35:53;0.45;;;0.45;;
46284;SDS011;32018;59.182;18.148;2022-11-20T11:38:21;0.40;;;0.40;;
46284;SDS011;32018;59.182;18.148;2022-11-20T11:40:46;0.30;;;0.30;;
46284;SDS011;32018;59.182;18.148;2022-11-20T11:43:31;0.40;;;0.40;;
46284;SDS011;32018;59.182;18.148;2022-11-20T11:46:27;0.40;;;0.40;;
46284;SDS011;32018;59.182;18.148;2022-11-20T11:51:46;0.50;;;0.50;;
46284;SDS011;32018;59.182;18.148;2022-11-20T11:54:17;0.50;;;0.50;;
46284;SDS011;32018;59.182;18.148;2022-11-20T11:56:44;0.50;;;0.50;;
46284;SDS011;32018;59.182;18.148;2022-11-20T11:59:12;0.50;;;0.50;;
46284;SDS011;32018;59.182;18.148;2022-11-20T12:04:21;0.40;;;0.40;;
46284;SDS011;32018;59.182;18.148;2022-11-20T12:06:51;0.50;;;0.50;;
46284;SDS011;32018;59.182;18.148;2022-11-20T12:09:18;0.40;;;0.40;;
46284;SDS011;32018;59.182;18.148;2022-11-20T12:11:47;0.40;;;0.40;;
46284;SDS011;32018;59.182;18.148;2022-11-20T12:14:17;0.30;;;0.30;;
46284;SDS011;32018;59.182;18.148;2022-11-20T12:16:45;0.30;;;0.30;;
46284;SDS011;32018;59.182;18.148;2022-11-20T12:19:11;0.30;;;0.30;;
46284;SDS011;32018;59.182;18.148;2022-11-20T12:21:41;0.40;;;0.40;;
46284;SDS011;32018;59.182;18.148;2022-11-20T12:30:15;0.47;;;0.47;;
46284;SDS011;32018;59.182;18.148;2022-11-20T12:48:45;0.70;;;0.70;;
46284;SDS011;32018;59.182;18.148;2022-11-20T12:56:23;0.98;;;0.80;;
46284;SDS011;32018;59.182;18.148;2022-11-20T13:04:23;1.38;;;0.90;;
46284;SDS011;32018;59.182;18.148;2022-11-20T13:06:50;1.08;;;0.60;;
46284;SDS011;32018;59.182;18.148;2022-11-20T13:09:16;0.50;;;0.50;;
46284;SDS011;32018;59.182;18.148;2022-11-20T13:11:51;0.75;;;0.75;;
46284;SDS011;32018;59.182;18.148;2022-11-20T13:19:21;1.20;;;0.80;;
46284;SDS011;32018;59.182;18.148;2022-11-20T13:21:48;0.50;;;0.50;;
46284;SDS011;32018;59.182;18.148;2022-11-20T13:26:45;0.70;;;0.70;;
46284;SDS011;32018;59.182;18.148;2022-11-20T13:29:11;0.60;;;0.60;;
46284;SDS011;32018;59.182;18.148;2022-11-20T13:31:42;0.83;;;0.80;;
46284;SDS011;32018;59.182;18.148;2022-11-20T13:34:09;0.60;;;0.60;;
46284;SDS011;32018;59.182;18.148;2022-11-20T13:36:37;0.88;;;0.70;;
46284;SDS011;32018;59.182;18.148;2022-11-20T13:39:23;0.73;;;0.60;;
46284;SDS011;32018;59.182;18.148;2022-11-20T13:41:53;0.70;;;0.70;;
46284;SDS011;32018;59.182;18.148;2022-11-20T13:44:28;1.10;;;0.70;;
46284;SDS011;32018;59.182;18.148;2022-11-20T13:46:54;0.82;;;0.65;;
46284;SDS011;32018;59.182;18.148;2022-11-20T13:49:27;1.80;;;0.77;;
46284;SDS011;32018;59.182;18.148;2022-11-20T13:52:07;0.75;;;0.70;;
46284;SDS011;32018;59.182;18.148;2022-11-20T14:00:22;0.60;;;0.52;;
46284;SDS011;32018;59.182;18.148;2022-11-20T14:03:30;0.75;;;0.70;;
46284;SDS011;32018;59.182;18.148;2022-11-20T14:05:45;1.10;;;0.70;;
46284;SDS011;32018;59.182;18.148;2022-11-20T14:08:18;0.70;;;0.70;;
46284;SDS011;32018;59.182;18.148;2022-11-20T14:10:44;0.50;;;0.50;;
46284;SDS011;32018;59.182;18.148;2022-11-20T14:13:10;0.50;;;0.50;;
46284;SDS011;32018;59.182;18.148;2022-11-20T14:15:36;0.55;;;0.55;;
46284;SDS011;32018;59.182;18.148;2022-11-20T14:18:11;0.50;;;0.50;;
46284;SDS011;32018;59.182;18.148;2022-11-20T14:20:37;0.40;;;0.40;;
46284;SDS011;32018;59.182;18.148;2022-11-20T14:23:02;0.50;;;0.50;;
46284;SDS011;32018;59.182;18.148;2022-11-20T14:25:30;0.50;;;0.50;;
46284;SDS011;32018;59.182;18.148;2022-11-20T14:27:59;0.68;;;0.50;;
46284;SDS011;32018;59.182;18.148;2022-11-20T14:30:26;0.52;;;0.50;;
46284;SDS011;32018;59.182;18.148;2022-11-20T14:32:56;1.13;;;0.60;;
46284;SDS011;32018;59.182;18.148;2022-11-20T14:37:50;0.57;;;0.57;;
46284;SDS011;32018;59.182;18.148;2022-11-20T14:42:48;0.80;;;0.60;;
46284;SDS011;32018;59.182;18.148;2022-11-20T14:45:13;0.80;;;0.60;;
46284;SDS011;32018;59.182;18.148;2022-11-20T14:47:38;0.60;;;0.60;;
46284;SDS011;32018;59.182;18.148;2022-11-20T14:50:07;0.50;;;0.50;;
46284;SDS011;32018;59.182;18.148;2022-11-20T14:52:33;0.68;;;0.68;;
46284;SDS011;32018;59.182;18.148;2022-11-20T14:54:58;0.55;;;0.55;;
46284;SDS011;32018;59.182;18.148;2022-11-20T14:57:31;0.50;;;0.50;;
46284;SDS011;32018;59.182;18.148;2022-11-20T15:00:04;0.60;;;0.60;;
46284;SDS011;32018;59.182;18.148;2022-11-20T15:02:30;0.50;;;0.50;;
46284;SDS011;32018;59.182;18.148;2022-11-20T15:04:58;0.45;;;0.45;;
46284;SDS011;32018;59.182;18.148;2022-11-20T15:07:38;0.55;;;0.55;;
46284;SDS011;32018;59.182;18.148;2022-11-20T15:12:31;0.57;;;0.50;;
46284;SDS011;32018;59.182;18.148;2022-11-20T15:14:56;0.57;;;0.57;;
46284;SDS011;32018;59.182;18.148;2022-11-20T15:17:22;0.60;;;0.60;;
46284;SDS011;32018;59.182;18.148;2022-11-20T15:19:48;0.60;;;0.60;;
46284;SDS011;32018;59.182;18.148;2022-11-20T15:22:13;0.50;;;0.50;;
46284;SDS011;32018;59.182;18.148;2022-11-20T15:24:41;1.00;;;0.60;;
46284;SDS011;32018;59.182;18.148;2022-11-20T15:27:07;0.50;;;0.50;;
46284;SDS011;32018;59.182;18.148;2022-11-20T15:29:32;0.60;;;0.60;;
46284;SDS011;32018;59.182;18.148;2022-11-20T15:31:58;0.50;;;0.50;;
46284;SDS011;32018;59.182;18.148;2022-11-20T15:34:23;2.13;;;0.70;;
46284;SDS011;32018;59.182;18.148;2022-11-20T15:36:48;0.60;;;0.60;;
46284;SDS011;32018;59.182;18.148;2022-11-20T15:39:14;0.68;;;0.68;;
46284;SDS011;32018;59.182;18.148;2022-11-20T15:41:39;1.20;;;0.50;;
46284;SDS011;32018;59.182;18.148;2022-11-20T15:44:05;0.60;;;0.60;;
46284;SDS011;32018;59.182;18.148;2022-11-20T15:46:31;0.43;;;0.40;;
46284;SDS011;32018;59.182;18.148;2022-11-20T15:49:03;0.50;;;0.50;;
46284;SDS011;32018;59.182;18.148;2022-11-20T15:51:29;0.50;;;0.50;;
46284;SDS011;32018;59.182;18.148;2022-11-20T15:53:56;0.60;;;0.60;;
46284;SDS011;32018;59.182;18.148;2022-11-20T15:56:21;1.20;;;0.80;;
46284;SDS011;32018;59.182;18.148;2022-11-20T15:58:47;0.70;;;0.70;;
46284;SDS011;32018;59.182;18.148;2022-11-20T16:01:13;1.02;;;0.70;;